Time;durP1;ratioP1;P1;durP2;ratioP2;P2;SDS_P1;SDS_P2;PMS_P1;PMS_P2;Temp;Humidity;BMP_temperature;BMP_pressure;BME280_temperature;BME280_humidity;BME280_pressure;Samples;Min_cycle;Max_cycle;Signal;HPM_P1;HPM_P2
2022/01/27 00:01:42;;;;;;;33.20;11.83;;;;;;;-1.06;88.11;101574.73;1933499;74;21049;-59
2022/01/27 00:06:34;;;;;;;27.67;10.95;;;;;;;-1.17;88.10;101574.06;1930026;74;21078;-58
2022/01/27 00:09:18;;;;;;;24.27;11.05;;;;;;;-1.18;88.19;101561.09;1930154;74;21058;-58
2022/01/27 00:11:46;;;;;;;33.25;13.05;;;;;;;-1.18;88.23;101558.13;1929807;74;21112;-60
2022/01/27 00:14:15;;;;;;;33.42;11.57;;;;;;;-1.20;88.30;101570.14;1929994;74;21034;-58
2022/01/27 00:16:53;;;;;;;27.13;11.45;;;;;;;-1.18;88.24;101567.17;1930128;74;21034;-58
2022/01/27 00:19:14;;;;;;;23.35;9.70;;;;;;;-1.14;88.20;101576.26;1929927;74;21042;-58
2022/01/27 00:21:43;;;;;;;28.77;10.78;;;;;;;-1.11;88.16;101564.70;1929958;74;21043;-58
2022/01/27 00:24:11;;;;;;;28.52;10.82;;;;;;;-1.10;88.13;101554.84;1929939;74;21058;-59
2022/01/27 00:26:40;;;;;;;25.92;8.43;;;;;;;-1.11;87.92;101545.32;1929986;74;21113;-58
2022/01/27 00:29:09;;;;;;;20.55;8.88;;;;;;;-1.06;87.99;101547.59;1930034;74;21042;-58
2022/01/27 00:34:27;;;;;;;26.00;9.60;;;;;;;-1.09;87.88;101565.61;1864153;77;21055;-56
2022/01/27 00:36:55;;;;;;;27.40;11.88;;;;;;;-1.14;88.04;101564.63;1840704;78;21127;-56
2022/01/27 00:39:24;;;;;;;26.73;9.60;;;;;;;-1.16;88.10;101564.63;1840780;78;21085;-56
2022/01/27 00:41:53;;;;;;;39.25;10.85;;;;;;;-1.13;88.07;101562.52;1840870;78;21144;-56
2022/01/27 00:44:22;;;;;;;26.57;9.13;;;;;;;-1.17;88.06;101562.86;1840802;78;21034;-56
2022/01/27 00:46:51;;;;;;;18.20;7.28;;;;;;;-1.19;87.97;101555.07;1840803;78;21597;-56
2022/01/27 00:49:20;;;;;;;23.80;9.45;;;;;;;-1.21;88.02;101555.45;1840609;78;21129;-56
2022/01/27 00:51:49;;;;;;;20.57;8.83;;;;;;;-1.26;88.06;101564.81;1840794;78;21112;-56
2022/01/27 00:54:21;;;;;;;27.58;9.88;;;;;;;-1.33;88.23;101565.51;1840882;78;21108;-56
2022/01/27 00:57:13;;;;;;;47.88;16.12;;;;;;;-1.32;88.29;101567.27;1840564;77;21030;-56
2022/01/27 00:59:47;;;;;;;27.73;10.65;;;;;;;-1.29;88.29;101562.58;1840250;77;21031;-57
2022/01/27 01:02:37;;;;;;;25.52;9.53;;;;;;;-1.28;88.16;101548.41;1839475;77;21066;-56
2022/01/27 01:05:06;;;;;;;31.97;11.50;;;;;;;-1.26;88.17;101556.19;1838974;77;21191;-56
2022/01/27 01:07:22;;;;;;;22.87;8.28;;;;;;;-1.24;88.19;101561.84;1839072;77;21077;-56
2022/01/27 01:15:29;;;;;;;42.67;15.25;;;;;;;-1.24;88.31;101555.37;1840869;78;21152;-60
2022/01/27 01:31:42;;;;;;;28.65;10.98;;;;;;;-1.25;87.92;101553.65;1893736;76;21345;-61
2022/01/27 01:34:13;;;;;;;23.07;9.63;;;;;;;-1.25;87.86;101542.02;1901235;74;21026;-61
2022/01/27 01:36:37;;;;;;;20.65;8.35;;;;;;;-1.26;87.89;101545.43;1896533;74;21044;-60
2022/01/27 01:39:07;;;;;;;30.88;10.80;;;;;;;-1.26;87.91;101540.27;1871190;76;21580;-60
2022/01/27 01:41:36;;;;;;;25.82;11.48;;;;;;;-1.26;87.83;101542.84;1861411;77;21545;-60
2022/01/27 01:44:05;;;;;;;30.55;12.18;;;;;;;-1.26;87.85;101542.84;1880725;76;21071;-59
2022/01/27 01:46:35;;;;;;;30.02;12.05;;;;;;;-1.26;87.85;101531.22;1893640;76;21409;-59
2022/01/27 01:49:05;;;;;;;26.27;11.33;;;;;;;-1.27;87.83;101526.91;1882701;76;21227;-60
2022/01/27 01:51:37;;;;;;;20.50;9.23;;;;;;;-1.30;87.87;101529.41;1891790;76;21019;-60
2022/01/27 01:54:07;;;;;;;25.68;9.78;;;;;;;-1.34;88.05;101528.03;1892405;74;21004;-61
2022/01/27 01:56:37;;;;;;;45.03;14.18;;;;;;;-1.35;87.98;101528.43;1893735;76;21114;-61
2022/01/27 01:59:06;;;;;;;40.15;13.00;;;;;;;-1.35;87.99;101525.84;1893506;76;21576;-60
2022/01/27 02:01:37;;;;;;;35.10;11.50;;;;;;;-1.33;87.97;101522.88;1873645;76;21553;-59
2022/01/27 02:04:09;;;;;;;31.90;10.63;;;;;;;-1.33;87.95;101529.33;1861770;77;21118;-60
2022/01/27 02:06:51;;;;;;;38.98;14.75;;;;;;;-1.32;87.93;101525.06;1861532;76;21137;-59
2022/01/27 02:20:24;;;;;;;19.30;8.58;;;;;;;-1.52;88.46;101529.77;1861489;77;21048;-59
2022/01/27 02:22:53;;;;;;;16.70;6.83;;;;;;;-1.58;88.62;101532.66;1861515;77;21059;-60
2022/01/27 02:25:22;;;;;;;20.20;7.58;;;;;;;-1.61;88.68;101532.58;1865224;74;21052;-61
2022/01/27 02:27:59;;;;;;;22.17;8.23;;;;;;;-1.63;88.73;101532.09;1904379;74;21135;-59
2022/01/27 02:30:28;;;;;;;10.53;3.35;;;;;;;-1.66;88.72;101535.49;1930157;74;21030;-61
2022/01/27 02:32:59;;;;;;;26.62;10.95;;;;;;;-1.72;88.96;101536.62;1927738;74;21072;-60
2022/01/27 02:35:30;;;;;;;24.35;9.48;;;;;;;-1.83;89.01;101527.31;1930435;74;21030;-60
2022/01/27 02:37:59;;;;;;;17.92;7.17;;;;;;;-1.82;89.24;101539.41;1905615;74;21107;-61
2022/01/27 02:40:34;;;;;;;24.30;9.33;;;;;;;-1.79;89.44;101545.05;1865455;77;21476;-61
2022/01/27 02:43:03;;;;;;;27.52;8.88;;;;;;;-1.82;89.71;101546.28;1865255;77;21001;-61
2022/01/27 02:46:06;;;;;;;27.45;11.12;;;;;;;-1.83;90.00;101547.10;1884628;76;21654;-61
2022/01/27 02:48:35;;;;;;;25.08;10.00;;;;;;;-1.78;90.02;101545.52;1897421;76;21056;-61
2022/01/27 02:51:04;;;;;;;25.62;9.70;;;;;;;-1.72;89.82;101553.83;1897144;76;21030;-61
2022/01/27 02:53:33;;;;;;;31.93;9.78;;;;;;;-1.75;89.72;101553.34;1897141;76;21546;-60
2022/01/27 02:56:01;;;;;;;22.62;9.40;;;;;;;-1.73;89.84;101554.25;1894834;76;21010;-61
2022/01/27 02:58:30;;;;;;;29.10;8.18;;;;;;;-1.66;89.84;101558.73;1897057;76;21033;-61
2022/01/27 03:00:59;;;;;;;20.10;8.08;;;;;;;-1.63;89.73;101551.03;1897176;76;21089;-62
2022/01/27 03:03:27;;;;;;;34.10;9.83;;;;;;;-1.57;89.50;101552.50;1897205;76;21063;-60
2022/01/27 03:05:56;;;;;;;27.73;9.45;;;;;;;-1.56;89.45;101552.94;1897136;76;21053;-61
2022/01/27 03:08:25;;;;;;;31.57;10.75;;;;;;;-1.59;89.52;101555.86;1897155;76;21119;-60
2022/01/27 03:11:05;;;;;;;27.42;9.60;;;;;;;-1.57;89.62;101556.38;1874512;76;21034;-60
2022/01/27 03:13:34;;;;;;;27.22;7.60;;;;;;;-1.59;89.74;101560.59;1865258;77;21092;-60
2022/01/27 03:16:06;;;;;;;30.12;9.58;;;;;;;-1.60;89.83;101558.87;1865445;77;21085;-60
2022/01/27 03:18:34;;;;;;;29.12;9.98;;;;;;;-1.61;89.67;101557.11;1896243;76;21014;-61
2022/01/27 03:21:04;;;;;;;28.73;10.25;;;;;;;-1.63;89.77;101563.95;1897241;76;21421;-61
2022/01/27 03:23:33;;;;;;;30.55;10.82;;;;;;;-1.62;89.78;101563.13;1897044;76;21033;-61
2022/01/27 03:26:01;;;;;;;20.45;7.60;;;;;;;-1.63;89.87;101558.78;1897141;76;21097;-61
2022/01/27 03:28:31;;;;;;;16.60;5.78;;;;;;;-1.58;89.80;101561.06;1896075;75;21071;-61
2022/01/27 03:30:59;;;;;;;16.85;5.53;;;;;;;-1.63;89.61;101566.53;1901251;75;21016;-61
2022/01/27 03:33:28;;;;;;;35.63;12.23;;;;;;;-1.68;89.40;101565.55;1901132;75;21510;-60
2022/01/27 03:35:57;;;;;;;23.85;10.35;;;;;;;-1.74;89.35;101562.82;1901227;75;21000;-61
2022/01/27 03:38:26;;;;;;;23.02;8.20;;;;;;;-1.74;89.38;101557.66;1898923;75;21454;-61
2022/01/27 03:40:54;;;;;;;27.58;9.83;;;;;;;-1.73;89.28;101559.42;1901349;75;21121;-61
2022/01/27 03:43:23;;;;;;;37.98;11.10;;;;;;;-1.68;89.13;101567.26;1901195;75;21039;-60
2022/01/27 03:45:52;;;;;;;31.07;10.45;;;;;;;-1.67;89.12;101571.60;1901163;75;20988;-60
2022/01/27 03:48:21;;;;;;;23.62;10.08;;;;;;;-1.64;88.95;101573.84;1878027;75;21075;-61
2022/01/27 03:50:50;;;;;;;34.83;12.73;;;;;;;-1.66;88.80;101567.77;1868861;77;21055;-60
2022/01/27 03:53:19;;;;;;;34.67;11.90;;;;;;;-1.62;88.82;101574.75;1868841;77;21086;-61
2022/01/27 03:55:48;;;;;;;115.22;30.15;;;;;;;-1.60;89.01;101584.70;1868864;77;21059;-62
2022/01/27 03:58:17;;;;;;;117.05;30.30;;;;;;;-1.56;89.10;101588.23;1868851;77;21560;-61
2022/01/27 04:00:46;;;;;;;79.40;24.07;;;;;;;-1.53;89.02;101588.70;1871031;75;21122;-61
2022/01/27 04:03:17;;;;;;;64.90;19.55;;;;;;;-1.56;89.08;101592.97;1870959;75;21027;-62
2022/01/27 04:05:52;;;;;;;46.65;17.32;;;;;;;-1.51;89.04;101590.91;1868809;77;21043;-61
2022/01/27 04:08:22;;;;;;;58.52;17.75;;;;;;;-1.47;88.90;101593.62;1868792;77;21485;-61
2022/01/27 04:10:51;;;;;;;99.17;27.58;;;;;;;-1.43;88.77;101591.98;1868755;77;21450;-61
2022/01/27 04:13:20;;;;;;;58.83;18.92;;;;;;;-1.44;88.67;101602.74;1898426;75;21117;-61
2022/01/27 04:15:48;;;;;;;68.67;20.27;;;;;;;-1.43;88.57;101595.86;1901104;75;21079;-60
2022/01/27 04:18:17;;;;;;;37.88;12.37;;;;;;;-1.45;88.48;101592.37;1896655;75;20984;-60
2022/01/27 04:20:46;;;;;;;19.77;8.27;;;;;;;-1.52;88.49;101578.84;1868953;77;21075;-60
2022/01/27 04:23:14;;;;;;;39.00;13.18;;;;;;;-1.53;88.45;101579.67;1868950;77;21043;-60
2022/01/27 04:25:43;;;;;;;39.73;12.63;;;;;;;-1.59;88.48;101587.72;1868948;77;21008;-59
2022/01/27 04:28:16;;;;;;;26.37;9.95;;;;;;;-1.67;88.74;101606.47;1868803;77;21016;-60
2022/01/27 04:30:43;;;;;;;26.90;8.88;;;;;;;-1.77;88.94;101590.74;1861917;76;21059;-61
2022/01/27 04:33:11;;;;;;;31.12;11.38;;;;;;;-1.76;89.16;101596.77;1861564;77;21506;-60
2022/01/27 04:35:46;;;;;;;32.85;10.18;;;;;;;-1.78;89.21;101593.28;1861574;77;21080;-60
2022/01/27 04:40:57;;;;;;;34.98;13.00;;;;;;;-1.71;89.23;101603.36;1864281;76;21039;-61
2022/01/27 04:48:23;;;;;;;29.75;10.48;;;;;;;-1.68;89.47;101612.02;1861686;77;21156;-60
2022/01/27 04:50:54;;;;;;;32.23;12.10;;;;;;;-1.71;89.39;101618.85;1861586;77;21028;-61
2022/01/27 04:53:30;;;;;;;42.95;14.05;;;;;;;-1.72;89.37;101626.13;1863572;76;21071;-60
2022/01/27 04:55:56;;;;;;;33.30;13.15;;;;;;;-1.71;89.43;101622.30;1860435;76;21076;-61
2022/01/27 04:58:31;;;;;;;40.10;14.83;;;;;;;-1.64;89.59;101622.02;1861664;77;21072;-60
2022/01/27 05:00:56;;;;;;;29.18;12.45;;;;;;;-1.57;89.76;101626.11;1860344;77;21126;-61
2022/01/27 05:03:31;;;;;;;28.27;10.90;;;;;;;-1.49;89.89;101625.42;1863776;76;21150;-61
2022/01/27 05:05:56;;;;;;;26.73;9.48;;;;;;;-1.50;89.81;101622.38;1860237;77;21051;-60
2022/01/27 05:08:25;;;;;;;36.38;11.10;;;;;;;-1.54;89.77;101624.00;1861629;77;21039;-59
2022/01/27 05:11:01;;;;;;;27.93;10.82;;;;;;;-1.57;89.61;101630.37;1861551;77;21050;-61
2022/01/27 05:13:30;;;;;;;30.52;11.15;;;;;;;-1.63;89.65;101637.55;1861248;77;21052;-61
2022/01/27 05:15:57;;;;;;;41.63;13.65;;;;;;;-1.64;89.65;101642.28;1863691;76;21044;-61
2022/01/27 05:18:26;;;;;;;35.60;11.97;;;;;;;-1.64;89.56;101639.70;1861533;77;21125;-60
2022/01/27 05:20:55;;;;;;;34.70;11.90;;;;;;;-1.64;89.84;101644.86;1861688;77;21015;-60
2022/01/27 05:23:23;;;;;;;35.83;11.57;;;;;;;-1.60;90.11;101642.80;1861691;77;21114;-59
2022/01/27 05:25:52;;;;;;;32.58;11.68;;;;;;;-1.46;90.42;101643.56;1861684;77;21166;-61
2022/01/27 05:28:21;;;;;;;29.12;10.45;;;;;;;-1.32;90.57;101646.07;1863759;76;21134;-60
2022/01/27 05:30:50;;;;;;;34.58;11.88;;;;;;;-1.18;90.78;101655.03;1866342;77;21090;-61
2022/01/27 05:33:19;;;;;;;32.58;13.05;;;;;;;-1.02;90.93;101664.00;1868909;77;21055;-60
2022/01/27 05:35:47;;;;;;;28.05;12.10;;;;;;;-0.89;90.80;101668.17;1868925;77;21486;-59
2022/01/27 05:38:19;;;;;;;26.05;11.03;;;;;;;-0.87;90.75;101660.89;1869035;77;21059;-58
2022/01/27 05:40:47;;;;;;;28.77;11.45;;;;;;;-0.74;90.66;101663.77;1871038;75;21162;-58
2022/01/27 05:43:16;;;;;;;29.35;10.45;;;;;;;-0.67;90.49;101662.64;1868858;77;21130;-59
2022/01/27 05:45:45;;;;;;;26.73;10.25;;;;;;;-0.63;90.32;101657.11;1868897;77;21051;-59
2022/01/27 05:48:14;;;;;;;29.40;10.78;;;;;;;-0.61;90.15;101652.84;1868993;77;21121;-58
2022/01/27 05:50:42;;;;;;;34.83;11.22;;;;;;;-0.57;90.54;101645.62;1871140;75;21036;-59
2022/01/27 05:53:11;;;;;;;25.25;8.85;;;;;;;-0.48;90.54;101649.70;1868863;77;21121;-59
2022/01/27 05:55:40;;;;;;;30.40;11.55;;;;;;;-0.40;90.59;101646.83;1869081;77;21317;-59
2022/01/27 05:58:09;;;;;;;23.18;10.53;;;;;;;-0.29;90.50;101651.37;1868897;77;21597;-59
2022/01/27 06:00:37;;;;;;;34.03;11.83;;;;;;;-0.16;90.50;101652.05;1871020;75;21062;-59
2022/01/27 06:03:06;;;;;;;37.73;11.65;;;;;;;-0.11;90.59;101651.73;1868918;77;21129;-60
2022/01/27 06:05:35;;;;;;;26.23;10.18;;;;;;;-0.07;90.81;101661.30;1868915;77;21039;-59
2022/01/27 06:08:04;;;;;;;28.47;11.78;;;;;;;-0.05;91.04;101664.78;1868905;77;21434;-59
2022/01/27 06:10:33;;;;;;;28.45;12.15;;;;;;;-0.08;91.29;101660.83;1870995;75;21078;-59
2022/01/27 06:13:02;;;;;;;40.65;13.65;;;;;;;-0.04;91.34;101664.36;1868919;77;21157;-59
2022/01/27 06:15:31;;;;;;;49.18;14.50;;;;;;;0.05;91.28;101663.66;1868853;77;21107;-59
2022/01/27 06:18:00;;;;;;;203.40;45.17;;;;;;;0.10;91.19;101662.91;1868893;77;21067;-60
2022/01/27 06:20:29;;;;;;;58.48;18.00;;;;;;;0.17;91.00;101669.09;1869053;77;21004;-60
2022/01/27 06:22:58;;;;;;;47.40;14.58;;;;;;;0.22;90.88;101668.72;1870933;75;21007;-60
2022/01/27 06:25:30;;;;;;;27.58;10.08;;;;;;;0.29;90.81;101665.83;1868911;77;21027;-61
2022/01/27 06:27:59;;;;;;;27.17;9.63;;;;;;;0.42;91.06;101665.63;1868952;77;21043;-60
2022/01/27 06:30:28;;;;;;;36.15;12.18;;;;;;;0.55;91.45;101666.28;1867448;77;21142;-59
2022/01/27 06:32:56;;;;;;;38.50;12.00;;;;;;;0.89;91.68;101663.83;1863772;76;21467;-59
2022/01/27 06:35:25;;;;;;;24.72;8.68;;;;;;;1.45;91.46;101665.48;1861601;77;21126;-61
2022/01/27 06:37:54;;;;;;;18.35;7.35;;;;;;;2.06;90.95;101663.19;1861730;77;21068;-60
2022/01/27 06:40:23;;;;;;;16.65;7.60;;;;;;;2.55;90.47;101654.59;1891824;76;21032;-61
2022/01/27 06:42:52;;;;;;;16.17;6.92;;;;;;;3.04;90.33;101654.97;1893706;76;21037;-60
2022/01/27 06:45:20;;;;;;;14.40;5.87;;;;;;;3.81;89.90;101652.73;1893705;76;21115;-61
2022/01/27 06:47:49;;;;;;;17.15;6.20;;;;;;;4.32;89.75;101652.88;1893683;74;21080;-61
2022/01/27 06:50:18;;;;;;;18.55;6.53;;;;;;;4.73;89.63;101658.55;1868881;76;21079;-61
2022/01/27 06:52:46;;;;;;;14.55;6.22;;;;;;;4.94;89.50;101661.59;1861637;77;21028;-61
2022/01/27 06:55:17;;;;;;;30.43;10.95;;;;;;;4.78;89.74;101661.17;1861593;77;21052;-61
2022/01/27 06:57:46;;;;;;;18.90;7.87;;;;;;;4.48;90.55;101659.41;1861749;77;21080;-59
2022/01/27 07:00:16;;;;;;;19.60;7.87;;;;;;;4.21;90.77;101659.38;1866169;76;21496;-59
2022/01/27 07:02:45;;;;;;;14.45;6.00;;;;;;;4.10;90.79;101668.91;1870291;76;21068;-59
2022/01/27 07:05:15;;;;;;;15.78;6.70;;;;;;;3.83;90.40;101677.05;1893820;76;21048;-58
2022/01/27 07:07:44;;;;;;;13.65;6.62;;;;;;;3.59;90.10;101671.75;1893851;76;21048;-61
2022/01/27 07:10:13;;;;;;;15.65;6.80;;;;;;;3.57;90.47;101669.58;1893829;76;21122;-59
2022/01/27 07:12:42;;;;;;;16.35;7.08;;;;;;;3.80;90.62;101664.04;1891347;76;21171;-61
2022/01/27 07:15:12;;;;;;;19.42;8.10;;;;;;;4.01;90.34;101655.85;1893566;75;21491;-61
2022/01/27 07:17:41;;;;;;;21.42;8.75;;;;;;;3.99;90.34;101660.19;1893719;76;21154;-60
2022/01/27 07:20:11;;;;;;;20.57;7.85;;;;;;;4.08;90.10;101657.61;1893697;76;21487;-61
2022/01/27 07:22:39;;;;;;;21.87;10.30;;;;;;;4.22;90.19;101649.39;1893677;76;21060;-61
2022/01/27 07:25:10;;;;;;;25.70;10.13;;;;;;;4.45;89.81;101644.63;1891474;74;21060;-61
2022/01/27 07:27:38;;;;;;;22.70;10.40;;;;;;;4.57;89.71;101661.58;1893732;74;21016;-60
2022/01/27 07:30:08;;;;;;;24.50;10.30;;;;;;;4.63;89.78;101662.04;1893686;76;21102;-59
2022/01/27 07:32:38;;;;;;;23.38;10.53;;;;;;;4.60;90.06;101657.67;1893750;76;21151;-59
2022/01/27 07:35:08;;;;;;;27.30;10.13;;;;;;;4.73;89.99;101668.98;1893678;76;21052;-59
2022/01/27 07:37:37;;;;;;;22.55;9.38;;;;;;;4.67;90.00;101668.09;1893602;76;21110;-59
2022/01/27 07:40:07;;;;;;;25.75;10.70;;;;;;;4.64;90.04;101675.50;1892406;76;21110;-60
2022/01/27 07:42:36;;;;;;;25.15;10.28;;;;;;;4.60;89.89;101682.45;1893689;76;21118;-60
2022/01/27 07:45:07;;;;;;;23.80;10.48;;;;;;;4.56;89.48;101677.25;1893754;76;21040;-59
2022/01/27 07:47:36;;;;;;;25.30;10.18;;;;;;;4.62;89.37;101685.93;1893716;76;21048;-60
2022/01/27 07:50:06;;;;;;;23.42;10.23;;;;;;;4.57;90.05;101688.96;1867713;74;21043;-58
2022/01/27 07:52:34;;;;;;;28.45;10.53;;;;;;;4.60;90.56;101682.90;1861500;77;21113;-60
2022/01/27 07:55:04;;;;;;;24.63;10.78;;;;;;;4.58;90.96;101686.80;1861597;77;21102;-60
2022/01/27 07:57:32;;;;;;;25.05;9.45;;;;;;;4.59;91.14;101689.86;1862209;76;21071;-59
2022/01/27 08:00:01;;;;;;;18.98;8.98;;;;;;;4.75;91.13;101695.08;1861621;77;21047;-60
2022/01/27 08:02:31;;;;;;;23.20;9.13;;;;;;;4.88;90.88;101700.73;1881455;76;21217;-59
2022/01/27 08:05:00;;;;;;;25.32;10.60;;;;;;;4.93;90.32;101691.16;1893644;76;21503;-60
2022/01/27 08:07:29;;;;;;;24.32;9.53;;;;;;;5.03;89.59;101689.41;1869268;76;21091;-59
2022/01/27 08:09:58;;;;;;;21.23;10.10;;;;;;;5.17;89.12;101689.41;1861594;77;21145;-60
2022/01/27 08:12:26;;;;;;;25.02;10.50;;;;;;;5.28;88.26;101692.01;1861620;77;21076;-57
2022/01/27 08:14:55;;;;;;;20.70;9.73;;;;;;;5.30;88.18;101690.26;1861596;77;21067;-60
2022/01/27 08:17:24;;;;;;;23.12;8.73;;;;;;;5.92;87.22;101685.67;1863757;76;21101;-59
2022/01/27 08:19:52;;;;;;;21.87;8.65;;;;;;;6.86;85.59;101679.87;1861540;77;21603;-59
2022/01/27 08:22:21;;;;;;;22.82;9.73;;;;;;;7.77;84.12;101682.88;1861632;77;21068;-59
2022/01/27 08:24:49;;;;;;;24.95;11.18;;;;;;;8.80;82.12;101678.35;1863739;76;21020;-60
2022/01/27 08:27:24;;;;;;;24.90;11.20;;;;;;;8.81;82.47;101681.84;1861662;77;21048;-60
2022/01/27 08:29:54;;;;;;;27.85;11.33;;;;;;;8.73;83.87;101687.22;1860803;77;21141;-58
2022/01/27 08:32:29;;;;;;;21.97;9.93;;;;;;;8.58;84.79;101684.84;1860666;77;21091;-59
2022/01/27 08:34:49;;;;;;;21.25;9.45;;;;;;;8.48;85.88;101686.30;1861662;76;21020;-60
2022/01/27 08:37:21;;;;;;;22.87;10.48;;;;;;;8.67;86.01;101680.77;1861606;77;21491;-59
2022/01/27 08:39:50;;;;;;;23.25;10.20;;;;;;;8.96;84.68;101671.52;1861616;77;21100;-59
2022/01/27 08:42:18;;;;;;;20.90;9.60;;;;;;;10.30;81.22;101674.95;1861599;77;21544;-59
2022/01/27 08:44:47;;;;;;;21.27;8.13;;;;;;;11.48;78.34;101675.08;1870563;76;21040;-59
2022/01/27 08:47:18;;;;;;;21.80;10.58;;;;;;;12.86;75.10;101671.78;1893672;76;21145;-59
2022/01/27 08:49:47;;;;;;;22.10;10.25;;;;;;;13.23;73.75;101673.16;1893785;76;21063;-60
2022/01/27 08:52:16;;;;;;;21.57;10.15;;;;;;;13.95;72.37;101665.24;1893681;76;21545;-60
2022/01/27 08:54:45;;;;;;;19.15;9.20;;;;;;;14.76;70.75;101666.92;1891409;76;21064;-60
2022/01/27 08:57:14;;;;;;;20.92;9.53;;;;;;;15.72;68.75;101668.45;1893668;76;21072;-61
2022/01/27 08:59:42;;;;;;;19.37;8.38;;;;;;;16.50;67.18;101666.55;1893896;76;21107;-59
2022/01/27 09:02:11;;;;;;;19.67;8.55;;;;;;;16.45;67.12;101665.95;1869798;76;21134;-59
2022/01/27 09:04:39;;;;;;;18.60;8.83;;;;;;;14.52;70.42;101668.30;1861685;77;21083;-58
2022/01/27 09:07:08;;;;;;;18.50;8.65;;;;;;;13.12;73.16;101666.92;1861699;77;21114;-59
2022/01/27 09:09:37;;;;;;;14.90;7.03;;;;;;;13.03;73.72;101660.16;1861574;77;21076;-60
2022/01/27 09:12:08;;;;;;;14.60;7.45;;;;;;;12.70;74.39;101651.14;1863809;76;21107;-59
2022/01/27 09:14:40;;;;;;;13.85;6.95;;;;;;;11.61;76.50;101647.90;1861810;77;21118;-59
2022/01/27 09:17:11;;;;;;;19.23;8.48;;;;;;;10.55;77.47;101654.65;1861674;77;21052;-61
2022/01/27 09:19:41;;;;;;;16.27;7.42;;;;;;;9.61;78.57;101657.59;1863850;76;21134;-61
2022/01/27 09:22:14;;;;;;;13.65;7.15;;;;;;;8.87;78.93;101656.77;1888255;76;21513;-60
2022/01/27 09:24:54;;;;;;;16.85;8.45;;;;;;;8.31;79.35;101661.56;1893913;76;21069;-58
2022/01/27 09:27:16;;;;;;;18.60;8.73;;;;;;;7.65;79.80;101657.20;1868598;76;21063;-58
2022/01/27 09:29:47;;;;;;;19.40;8.75;;;;;;;7.28;81.06;101655.01;1861653;77;21028;-59
2022/01/27 09:32:17;;;;;;;18.75;8.58;;;;;;;7.69;81.70;101667.22;1861584;77;21052;-61
2022/01/27 09:34:47;;;;;;;20.37;9.38;;;;;;;7.59;81.30;101667.78;1861602;77;21122;-60
2022/01/27 09:37:16;;;;;;;20.92;9.25;;;;;;;7.86;81.99;101670.96;1861628;77;21141;-60
2022/01/27 09:39:46;;;;;;;19.37;8.90;;;;;;;8.41;81.71;101676.75;1861736;77;21039;-60
2022/01/27 09:42:15;;;;;;;19.65;8.80;;;;;;;8.59;81.80;101670.81;1861691;77;21525;-60
2022/01/27 09:44:51;;;;;;;22.67;10.23;;;;;;;8.65;82.08;101672.02;1861633;77;21522;-59
2022/01/27 09:47:16;;;;;;;19.05;9.35;;;;;;;8.77;82.19;101672.28;1860105;76;21141;-59
2022/01/27 09:49:54;;;;;;;21.20;9.38;;;;;;;8.90;81.98;101679.05;1861693;77;21063;-59
2022/01/27 09:52:21;;;;;;;18.80;8.53;;;;;;;8.74;82.67;101679.74;1861134;77;21052;-59
2022/01/27 09:54:51;;;;;;;22.00;9.70;;;;;;;8.88;82.64;101680.39;1861648;77;21525;-59
2022/01/27 09:57:20;;;;;;;19.87;9.95;;;;;;;8.97;82.53;101687.70;1861653;77;21051;-58
2022/01/27 09:59:49;;;;;;;20.77;9.33;;;;;;;9.15;82.24;101684.76;1861570;77;21055;-58
2022/01/27 10:02:26;;;;;;;22.17;9.55;;;;;;;9.26;82.26;101684.56;1861555;77;21048;-59
2022/01/27 10:04:54;;;;;;;19.87;9.63;;;;;;;9.50;81.60;101680.61;1860315;77;21031;-61
2022/01/27 10:07:33;;;;;;;22.02;9.28;;;;;;;9.49;81.59;101682.80;1861687;77;21059;-60
2022/01/27 10:10:02;;;;;;;20.60;9.90;;;;;;;9.13;82.10;101681.30;1884776;74;21063;-63
2022/01/27 10:12:39;;;;;;;20.60;9.75;;;;;;;8.72;82.68;101682.84;1893415;76;21636;-60
2022/01/27 10:15:12;;;;;;;23.67;9.90;;;;;;;8.27;83.33;101683.95;1881101;76;21092;-59
2022/01/27 10:17:43;;;;;;;22.67;10.13;;;;;;;7.98;83.04;101686.52;1861631;77;21122;-60
2022/01/27 10:20:18;;;;;;;23.85;11.40;;;;;;;7.69;82.97;101689.50;1853923;77;21157;-59
2022/01/27 10:23:12;;;;;;;22.85;10.10;;;;;;;7.48;83.64;101688.86;1861500;77;21060;-59
2022/01/27 10:25:51;;;;;;;21.65;10.03;;;;;;;7.28;83.54;101698.23;1873077;76;21059;-60
2022/01/27 10:28:35;;;;;;;24.98;11.50;;;;;;;7.14;83.29;101698.84;1891584;76;21117;-62
2022/01/27 10:31:09;;;;;;;28.50;11.63;;;;;;;6.87;83.97;101691.64;1917630;74;21031;-59
2022/01/27 10:34:01;;;;;;;33.58;12.30;;;;;;;6.78;84.23;101689.09;1928907;74;21138;-59
2022/01/27 10:36:43;;;;;;;25.82;11.60;;;;;;;6.57;84.44;101692.77;1934437;74;21055;-59
2022/01/27 10:39:15;;;;;;;28.07;11.83;;;;;;;6.51;84.56;101692.78;1934349;74;21101;-60
2022/01/27 10:42:00;;;;;;;25.90;11.65;;;;;;;6.40;84.79;101696.80;1934389;74;21132;-59
2022/01/27 10:44:48;;;;;;;25.95;10.50;;;;;;;6.37;84.31;101700.30;1934371;74;21016;-58
2022/01/27 10:47:22;;;;;;;29.00;12.37;;;;;;;6.15;84.11;101690.39;1933606;74;22298;-59
2022/01/27 10:49:59;;;;;;;22.07;10.35;;;;;;;5.87;84.60;101696.62;1891042;74;21102;-63
2022/01/27 10:52:35;;;;;;;23.42;10.70;;;;;;;5.77;85.30;101691.84;1882388;75;21034;-67
2022/01/27 10:55:00;;;;;;;22.75;10.55;;;;;;;5.78;85.28;101690.53;1884536;75;21117;-63
2022/01/27 10:57:29;;;;;;;21.30;9.65;;;;;;;5.75;84.63;101684.00;1880932;75;21388;-60
2022/01/27 11:00:10;;;;;;;24.82;10.58;;;;;;;5.68;84.03;101687.55;1891253;75;21114;-60
2022/01/27 11:02:59;;;;;;;24.80;10.93;;;;;;;5.51;84.21;101685.41;1888056;75;21690;-63
2022/01/27 11:05:29;;;;;;;23.80;11.43;;;;;;;5.32;85.02;101683.28;1891168;75;21467;-62
2022/01/27 11:07:59;;;;;;;24.37;10.05;;;;;;;5.20;85.91;101686.77;1893434;75;21089;-61
2022/01/27 11:10:28;;;;;;;24.85;10.53;;;;;;;5.32;86.14;101691.98;1901057;75;21028;-62
2022/01/27 11:12:58;;;;;;;26.85;10.60;;;;;;;5.41;85.49;101697.19;1901002;75;21146;-60
2022/01/27 11:15:27;;;;;;;22.98;9.95;;;;;;;5.34;85.18;101694.15;1890330;75;21093;-62
2022/01/27 11:17:57;;;;;;;23.50;10.23;;;;;;;5.27;85.60;101698.09;1901037;75;21051;-65
2022/01/27 11:25:51;;;;;;;22.62;9.58;;;;;;;5.02;85.90;101706.81;1899172;75;21016;-63
2022/01/27 11:28:22;;;;;;;18.15;8.43;;;;;;;4.94;85.86;101707.27;1889684;75;21117;-61
2022/01/27 11:31:00;;;;;;;24.20;9.05;;;;;;;4.80;86.02;101712.92;1894377;75;21086;-61
2022/01/27 11:33:34;;;;;;;21.95;9.35;;;;;;;4.62;85.82;101709.41;1901006;75;21036;-60
2022/01/27 11:36:15;;;;;;;21.05;8.10;;;;;;;4.44;85.85;101716.80;1901227;75;21035;-58
2022/01/27 11:38:49;;;;;;;20.10;9.18;;;;;;;4.27;86.24;101711.09;1900953;75;21024;-58
2022/01/27 11:41:48;;;;;;;21.65;10.10;;;;;;;4.25;85.82;101709.34;1901422;74;21415;-63
2022/01/27 11:44:25;;;;;;;21.57;9.65;;;;;;;4.03;86.18;101717.53;1876052;75;21098;-65
2022/01/27 11:47:14;;;;;;;23.75;9.73;;;;;;;3.84;86.80;101710.08;1868881;77;21144;-68
2022/01/27 11:49:56;;;;;;;23.85;7.40;;;;;;;3.75;86.26;101712.64;1868810;77;21079;-64
2022/01/27 11:52:36;;;;;;;20.48;8.75;;;;;;;3.86;85.78;101722.67;1891137;75;21212;-65
2022/01/27 11:55:29;;;;;;;22.37;9.00;;;;;;;3.91;85.14;101717.91;1899552;75;21102;-62
2022/01/27 11:58:03;;;;;;;20.55;8.33;;;;;;;3.83;85.48;101716.14;1901176;75;21059;-62
2022/01/27 12:00:32;;;;;;;21.77;9.23;;;;;;;3.68;85.93;101726.49;1899589;75;21130;-62
2022/01/27 12:03:09;;;;;;;19.60;8.55;;;;;;;3.46;86.51;101728.97;1901192;75;21121;-64
2022/01/27 12:05:46;;;;;;;20.02;9.18;;;;;;;3.18;86.40;101729.66;1901181;75;21032;-64
2022/01/27 12:08:19;;;;;;;22.58;9.13;;;;;;;3.22;86.25;101727.08;1901054;75;21107;-65
2022/01/27 12:10:53;;;;;;;21.95;9.05;;;;;;;3.27;85.36;101737.53;1901242;75;21032;-64
2022/01/27 12:13:35;;;;;;;21.82;8.83;;;;;;;3.27;85.02;101732.33;1901083;74;21655;-65
2022/01/27 12:19:13;;;;;;;28.15;10.30;;;;;;;3.26;85.23;101733.17;1868756;77;21045;-60
2022/01/27 12:21:48;;;;;;;23.80;9.85;;;;;;;3.21;85.88;101734.87;1868327;77;21164;-57
2022/01/27 12:24:24;;;;;;;28.30;9.70;;;;;;;3.22;86.13;101737.48;1870664;75;21053;-60
2022/01/27 12:27:04;;;;;;;22.98;10.23;;;;;;;3.13;86.48;101745.66;1886823;75;21063;-59